createdAt,value
2022-12-23T00:00:30.455Z,9.09
2022-12-23T00:03:03.078Z,9.10
2022-12-23T00:05:37.682Z,9.10
2022-12-23T00:08:09.099Z,9.11
2022-12-23T00:10:41.600Z,9.13
2022-12-23T00:13:25.055Z,9.14
2022-12-23T00:16:03.064Z,9.13
2022-12-23T00:18:36.065Z,9.15
2022-12-23T00:21:09.094Z,9.14
2022-12-23T00:23:41.311Z,9.13
2022-12-23T00:26:16.352Z,9.13
2022-12-23T00:28:46.634Z,9.15
2022-12-23T00:31:18.862Z,9.15
2022-12-23T00:33:54.523Z,9.13
2022-12-23T00:36:27.822Z,9.08
2022-12-23T00:39:10.903Z,9.04
2022-12-23T00:41:53.535Z,9.02
2022-12-23T00:44:23.621Z,9.00
2022-12-23T00:46:53.470Z,8.96
2022-12-23T00:49:38.539Z,8.90
2022-12-23T00:52:09.990Z,8.80
2022-12-23T00:54:40.045Z,8.73
2022-12-23T00:57:09.970Z,8.68
2022-12-23T00:59:40.877Z,8.66
2022-12-23T01:02:24.765Z,8.70
2022-12-23T01:05:09.679Z,8.71
2022-12-23T01:07:39.451Z,8.71
2022-12-23T01:10:11.728Z,8.73
2022-12-23T01:12:41.484Z,8.77
2022-12-23T01:15:12.190Z,8.78
2022-12-23T01:17:41.955Z,8.79
2022-12-23T01:20:15.807Z,8.82
2022-12-23T01:22:45.618Z,8.85
2022-12-23T01:25:15.367Z,8.87
2022-12-23T01:27:45.259Z,8.87
2022-12-23T01:30:15.494Z,8.89
2022-12-23T01:32:45.225Z,8.88
2022-12-23T01:35:18.007Z,8.91
2022-12-23T01:37:47.732Z,8.89
2022-12-23T01:40:17.492Z,8.90
2022-12-23T01:42:44.715Z,8.91
2022-12-23T01:45:20.083Z,8.93
2022-12-23T01:47:54.851Z,8.94
2022-12-23T01:50:31.923Z,8.95
2022-12-23T01:53:08.186Z,8.96
2022-12-23T01:55:41.785Z,8.96
2022-12-23T01:58:14.930Z,8.96
2022-12-23T02:00:57.683Z,8.96
2022-12-23T02:03:39.937Z,8.95
2022-12-23T02:06:26.624Z,8.95
2022-12-23T02:09:08.724Z,8.92
2022-12-23T02:11:52.716Z,8.91
2022-12-23T02:14:51.503Z,8.89
2022-12-23T02:17:28.032Z,8.87
2022-12-23T02:20:40.264Z,8.87
2022-12-23T02:23:43.453Z,8.87
2022-12-23T02:26:39.380Z,8.87
2022-12-23T02:57:16.351Z,9.22
2022-12-23T02:59:52.122Z,9.12
2022-12-23T03:02:22.495Z,9.07
2022-12-23T03:04:52.677Z,9.03
2022-12-23T03:07:34.307Z,8.99
2022-12-23T03:10:14.960Z,8.96
2022-12-23T03:12:56.202Z,8.92
2022-12-23T03:15:35.417Z,8.89
2022-12-23T03:18:14.165Z,8.86
2022-12-23T03:20:53.686Z,8.81
2022-12-23T03:23:28.428Z,8.78
2022-12-23T03:26:05.443Z,8.74
2022-12-23T03:28:46.448Z,8.74
2022-12-23T03:31:23.353Z,8.72
2022-12-23T03:33:59.238Z,8.71
2022-12-23T03:36:34.852Z,8.68
2022-12-23T03:39:08.382Z,8.65
2022-12-23T03:41:44.445Z,8.64
2022-12-23T03:44:19.324Z,8.62
2022-12-23T03:46:55.489Z,8.61
2022-12-23T03:49:30.306Z,8.61
2022-12-23T03:52:05.815Z,8.59
2022-12-23T03:54:41.852Z,8.59
2022-12-23T03:57:13.427Z,8.58
2022-12-23T03:59:50.577Z,8.60
2022-12-23T04:02:27.698Z,8.61
2022-12-23T04:05:13.099Z,8.59
2022-12-23T04:07:48.031Z,8.58
2022-12-23T04:10:18.492Z,8.56
2022-12-23T04:12:48.287Z,8.53
2022-12-23T04:15:25.476Z,8.52
2022-12-23T04:17:57.267Z,8.51
2022-12-23T04:20:27.795Z,8.50
2022-12-23T04:27:36.437Z,8.44
2022-12-23T04:30:07.351Z,8.44
2022-12-23T04:32:41.463Z,8.42
2022-12-23T04:35:12.254Z,8.44
2022-12-23T04:37:42.655Z,8.45
2022-12-23T04:40:13.299Z,8.47
2022-12-23T04:42:43.279Z,8.45
2022-12-23T04:45:14.033Z,8.47
2022-12-23T04:47:46.548Z,8.47
2022-12-23T04:50:17.743Z,8.48
2022-12-23T04:52:47.655Z,8.46
2022-12-23T04:55:17.719Z,8.46
2022-12-23T04:57:47.649Z,8.44
2022-12-23T05:00:18.762Z,8.41
2022-12-23T05:02:51.295Z,8.37
2022-12-23T05:05:21.274Z,8.37
2022-12-23T05:07:52.701Z,8.35
2022-12-23T05:10:22.494Z,8.34
2022-12-23T05:12:52.280Z,8.33
2022-12-23T05:15:22.206Z,8.31
2022-12-23T05:17:54.603Z,8.31
2022-12-23T05:20:24.513Z,8.30
2022-12-23T05:22:54.419Z,8.30
2022-12-23T05:25:24.385Z,8.31
2022-12-23T05:27:54.135Z,8.33
2022-12-23T05:30:23.887Z,8.34
2022-12-23T05:32:59.715Z,8.34
2022-12-23T05:35:30.687Z,8.32
2022-12-23T05:38:02.670Z,8.33
2022-12-23T05:40:32.890Z,8.34
2022-12-23T05:43:03.695Z,8.34
2022-12-23T05:45:38.293Z,8.35
2022-12-23T05:48:11.043Z,8.34
2022-12-23T05:50:41.784Z,8.32
2022-12-23T05:53:12.414Z,8.32
2022-12-23T05:55:42.384Z,8.30
2022-12-23T05:58:12.264Z,8.27
2022-12-23T06:00:42.066Z,8.22
2022-12-23T06:03:14.718Z,8.19
2022-12-23T06:05:44.694Z,8.18
2022-12-23T06:08:14.547Z,8.15
2022-12-23T06:10:44.464Z,8.14
2022-12-23T06:13:14.357Z,8.13
2022-12-23T06:15:44.169Z,8.16
2022-12-23T06:18:16.603Z,8.17
2022-12-23T06:20:49.474Z,8.19
2022-12-23T06:23:19.284Z,8.22
2022-12-23T06:25:49.032Z,8.22
2022-12-23T06:28:18.825Z,8.23
2022-12-23T06:30:48.604Z,8.27
2022-12-23T06:33:21.022Z,8.28
2022-12-23T06:35:50.932Z,8.26
2022-12-23T06:38:20.691Z,8.22
2022-12-23T06:40:50.661Z,8.19
2022-12-23T06:43:20.645Z,8.18
2022-12-23T06:45:51.371Z,8.16
2022-12-23T06:48:23.930Z,8.12
2022-12-23T06:50:53.680Z,8.07
2022-12-23T06:53:23.458Z,8.05
2022-12-23T06:55:53.424Z,8.03
2022-12-23T06:58:26.341Z,8.03
2022-12-23T07:00:56.421Z,8.03
2022-12-23T07:03:29.077Z,8.06
2022-12-23T07:05:59.027Z,8.06
2022-12-23T07:08:28.934Z,8.07
2022-12-23T07:11:01.409Z,8.06
2022-12-23T07:13:31.354Z,8.05
2022-12-23T07:16:01.516Z,8.05
2022-12-23T07:18:33.869Z,8.06
2022-12-23T07:21:04.568Z,8.04
2022-12-23T07:23:34.427Z,8.05
2022-12-23T07:26:04.323Z,8.03
2022-12-23T07:28:34.046Z,8.03
2022-12-23T07:31:03.813Z,8.05
2022-12-23T07:33:36.154Z,8.03
2022-12-23T07:36:05.928Z,8.02
2022-12-23T07:38:35.689Z,8.03
2022-12-23T07:41:05.483Z,8.07
2022-12-23T07:43:35.266Z,8.07
2022-12-23T07:46:09.384Z,8.10
2022-12-23T07:48:42.615Z,8.11
2022-12-23T07:51:12.593Z,8.14
2022-12-23T07:53:42.399Z,8.16
2022-12-23T07:56:12.132Z,8.21
2022-12-23T07:58:41.898Z,8.22
2022-12-23T08:01:11.707Z,8.25
2022-12-23T08:03:44.193Z,8.27
2022-12-23T08:06:16.032Z,8.29
2022-12-23T08:08:47.599Z,8.30
2022-12-23T08:11:18.490Z,8.32
2022-12-23T08:13:49.348Z,8.30
2022-12-23T08:16:19.125Z,8.28
2022-12-23T08:18:51.460Z,8.27
2022-12-23T08:21:22.250Z,8.26
2022-12-23T08:23:52.154Z,8.26
2022-12-23T08:26:23.923Z,8.28
2022-12-23T08:28:54.844Z,8.29
2022-12-23T08:31:27.679Z,8.30
2022-12-23T08:34:01.202Z,8.32
2022-12-23T08:36:33.687Z,8.35
2022-12-23T08:39:05.998Z,8.38
2022-12-23T08:41:57.758Z,8.41
2022-12-23T08:48:12.911Z,8.44
2022-12-23T08:50:47.721Z,8.46
2022-12-23T08:53:17.781Z,8.47
2022-12-23T08:55:50.287Z,8.49
2022-12-23T08:58:20.288Z,8.51
2022-12-23T09:00:50.154Z,8.54
2022-12-23T09:03:20.017Z,8.54
2022-12-23T09:05:52.502Z,8.55
2022-12-23T09:08:22.261Z,8.54
2022-12-23T09:10:52.446Z,8.56
2022-12-23T09:13:30.783Z,8.58
2022-12-23T09:16:04.744Z,8.58
2022-12-23T09:18:34.925Z,8.59
2022-12-23T09:21:09.466Z,8.60
2022-12-23T09:23:39.372Z,8.60
2022-12-23T09:26:10.255Z,8.60
2022-12-23T09:28:40.313Z,8.63
2022-12-23T09:31:11.072Z,8.63
2022-12-23T09:33:41.517Z,8.63
2022-12-23T09:36:14.074Z,8.64
2022-12-23T09:38:43.882Z,8.66
2022-12-23T09:41:24.742Z,8.77
2022-12-23T09:44:06.170Z,8.95
2022-12-23T09:46:37.630Z,9.06
2022-12-23T09:49:13.114Z,9.14
2022-12-23T09:51:45.739Z,9.26
2022-12-23T09:54:21.937Z,9.33
2022-12-23T09:56:56.890Z,9.35
2022-12-23T09:59:39.721Z,9.36
2022-12-23T10:02:22.005Z,9.35
2022-12-23T10:05:00.564Z,9.35
2022-12-23T10:07:38.911Z,9.35
2022-12-23T10:10:19.643Z,9.35
2022-12-23T10:12:54.446Z,9.32
2022-12-23T10:15:29.245Z,9.31
2022-12-23T10:18:01.943Z,9.34
2022-12-23T10:20:40.447Z,9.33
2022-12-23T10:23:19.362Z,9.32
2022-12-23T10:25:54.438Z,9.32
2022-12-23T10:28:24.218Z,9.33
2022-12-23T10:34:03.963Z,9.35
2022-12-23T10:36:43.680Z,9.37
2022-12-23T10:39:25.864Z,9.38
2022-12-23T10:42:06.297Z,9.37
2022-12-23T10:45:05.663Z,9.38
2022-12-23T10:47:49.527Z,9.37
2022-12-23T10:50:37.735Z,9.37
2022-12-23T10:53:13.239Z,9.35
2022-12-23T10:55:46.599Z,9.33
2022-12-23T10:58:18.692Z,9.34
2022-12-23T11:00:54.938Z,9.34
2022-12-23T11:03:29.195Z,9.35
2022-12-23T11:06:00.787Z,9.43
2022-12-23T11:08:33.761Z,9.52
2022-12-23T11:11:06.696Z,9.54
2022-12-23T11:13:39.881Z,9.56
2022-12-23T11:16:31.907Z,9.57
2022-12-23T11:19:05.097Z,9.55
2022-12-23T11:21:36.429Z,9.54
2022-12-23T11:24:23.543Z,9.50
2022-12-23T11:27:04.734Z,9.44
2022-12-23T11:29:37.827Z,9.37
2022-12-23T11:32:20.370Z,9.31
2022-12-23T11:34:52.051Z,9.29
2022-12-23T11:37:38.018Z,9.27
2022-12-23T11:40:09.724Z,9.26
2022-12-23T11:42:46.144Z,9.21
2022-12-23T11:45:25.532Z,9.18
2022-12-23T11:47:56.428Z,9.14
2022-12-23T11:50:44.717Z,9.00
2022-12-23T11:53:17.016Z,8.92
2022-12-23T11:55:51.684Z,8.88
2022-12-23T11:58:26.953Z,8.85
2022-12-23T12:00:59.119Z,8.84
2022-12-23T12:03:33.539Z,8.84
2022-12-23T12:06:06.604Z,8.80
2022-12-23T12:08:39.539Z,8.73
2022-12-23T12:11:16.846Z,8.64
2022-12-23T12:13:53.749Z,8.53
2022-12-23T12:16:36.578Z,8.52
2022-12-23T12:19:13.590Z,8.47
2022-12-23T12:21:44.837Z,8.50
2022-12-23T12:24:22.081Z,8.52
2022-12-23T12:26:55.441Z,8.54
2022-12-23T12:29:33.674Z,8.60
2022-12-23T12:32:05.136Z,8.65
2022-12-23T12:34:45.490Z,8.73
2022-12-23T12:37:27.515Z,8.81
2022-12-23T12:40:03.711Z,8.84
2022-12-23T12:42:41.250Z,8.87
2022-12-23T12:45:23.872Z,8.86
2022-12-23T12:48:16.267Z,8.81
2022-12-23T12:50:57.832Z,8.79
2022-12-23T12:53:27.666Z,8.78
2022-12-23T12:56:02.940Z,8.78
2022-12-23T12:58:32.796Z,8.77
2022-12-23T13:01:26.819Z,8.77
2022-12-23T13:04:19.398Z,8.77
2022-12-23T13:06:57.768Z,8.78
2022-12-23T13:09:39.506Z,8.81
2022-12-23T13:12:17.705Z,8.80
2022-12-23T13:15:01.242Z,8.79
2022-12-23T13:17:39.004Z,8.73
2022-12-23T13:20:19.140Z,8.69
2022-12-23T13:22:54.535Z,8.66
2022-12-23T13:25:28.319Z,8.65
2022-12-23T13:28:00.266Z,8.68
2022-12-23T13:30:36.922Z,8.72
2022-12-23T13:33:25.625Z,8.75
2022-12-23T13:36:07.716Z,8.77
2022-12-23T13:39:05.066Z,8.79
2022-12-23T13:41:39.634Z,8.84
2022-12-23T13:44:13.623Z,8.84
2022-12-23T13:46:54.466Z,8.83
2022-12-23T13:49:36.359Z,8.80
2022-12-23T13:52:13.226Z,8.79
2022-12-23T13:54:53.785Z,8.79
2022-12-23T13:57:42.372Z,8.76
2022-12-23T14:00:27.861Z,8.72
2022-12-23T14:03:21.677Z,8.69
2022-12-23T14:05:58.192Z,8.63
2022-12-23T14:08:34.677Z,8.56
2022-12-23T14:11:13.706Z,8.52
2022-12-23T14:13:47.267Z,8.48
2022-12-23T14:16:43.583Z,8.44
2022-12-23T14:19:37.480Z,8.37
2022-12-23T14:22:24.903Z,8.31
2022-12-23T14:25:31.823Z,8.26
2022-12-23T14:28:13.239Z,8.20
2022-12-23T14:30:46.218Z,8.17
2022-12-23T14:33:28.263Z,8.12
2022-12-23T14:36:01.370Z,8.09
2022-12-23T14:38:34.948Z,8.08
2022-12-23T14:41:25.582Z,8.06
2022-12-23T14:43:59.515Z,8.03
2022-12-23T14:46:58.887Z,8.02
2022-12-23T14:49:46.865Z,7.99
2022-12-23T14:52:48.295Z,7.97
2022-12-23T14:55:45.734Z,7.96
2022-12-23T14:58:33.668Z,7.95
2022-12-23T15:01:06.747Z,7.90
2022-12-23T15:03:43.053Z,7.91
2022-12-23T15:06:20.666Z,7.90
2022-12-23T15:08:53.797Z,7.89
2022-12-23T15:11:31.145Z,7.87
2022-12-23T15:14:03.195Z,7.86
2022-12-23T15:16:36.185Z,7.86
2022-12-23T15:19:19.669Z,7.84
2022-12-23T15:22:03.223Z,7.83
2022-12-23T15:24:37.692Z,7.81
2022-12-23T15:27:26.515Z,7.81
2022-12-23T15:29:58.023Z,7.78
2022-12-23T15:32:29.633Z,7.78
2022-12-23T15:35:05.196Z,7.78
2022-12-23T15:37:37.922Z,7.77
2022-12-23T15:40:13.465Z,7.76
2022-12-23T15:42:50.291Z,7.75
2022-12-23T15:45:36.651Z,7.72
2022-12-23T15:48:08.065Z,7.71
2022-12-23T15:50:42.157Z,7.69
2022-12-23T15:53:19.984Z,7.69
2022-12-23T15:55:51.705Z,7.69
2022-12-23T15:58:24.285Z,7.68
2022-12-23T16:00:57.653Z,7.68
2022-12-23T16:03:33.405Z,7.68
2022-12-23T16:06:12.184Z,7.66
2022-12-23T16:08:45.600Z,7.64
2022-12-23T16:11:17.821Z,7.64
2022-12-23T16:13:59.333Z,7.64
2022-12-23T16:16:40.995Z,7.64
2022-12-23T16:19:40.624Z,7.62
2022-12-23T16:22:20.195Z,7.60
2022-12-23T16:24:56.566Z,7.59
2022-12-23T16:27:36.282Z,7.57
2022-12-23T16:30:13.746Z,7.57
2022-12-23T16:32:50.446Z,7.55
2022-12-23T16:35:39.290Z,7.55
2022-12-23T16:38:16.093Z,7.51
2022-12-23T16:40:50.790Z,7.49
2022-12-23T16:43:21.865Z,7.46
2022-12-23T16:45:55.702Z,7.47
2022-12-23T16:48:33.142Z,7.44
2022-12-23T16:51:03.401Z,7.41
2022-12-23T16:53:33.281Z,7.39
2022-12-23T16:56:06.571Z,7.39
2022-12-23T16:58:36.474Z,7.39
2022-12-23T17:01:07.145Z,7.38
2022-12-23T17:03:37.053Z,7.39
2022-12-23T17:06:06.992Z,7.36
2022-12-23T17:08:36.853Z,7.37
2022-12-23T17:11:16.512Z,7.39
2022-12-23T17:13:47.365Z,7.40
2022-12-23T17:16:20.188Z,7.40
2022-12-23T17:18:50.569Z,7.43
2022-12-23T17:21:23.165Z,7.42
2022-12-23T17:23:53.994Z,7.41
2022-12-23T17:26:26.389Z,7.40
2022-12-23T17:28:56.271Z,7.41
2022-12-23T17:31:27.474Z,7.40
2022-12-23T17:33:57.319Z,7.37
2022-12-23T17:36:27.198Z,7.39
2022-12-23T17:38:57.063Z,7.38
2022-12-23T17:41:32.416Z,7.36
2022-12-23T17:44:02.659Z,7.33
2022-12-23T17:46:32.634Z,7.32
2022-12-23T17:49:02.723Z,7.31
2022-12-23T17:51:32.657Z,7.29
2022-12-23T17:54:04.675Z,7.31
2022-12-23T17:56:38.330Z,7.29
2022-12-23T17:59:08.184Z,7.26
2022-12-23T18:01:38.069Z,7.25
2022-12-23T18:04:08.110Z,7.22
2022-12-23T18:06:37.933Z,7.22
2022-12-23T18:09:07.801Z,7.21
2022-12-23T18:11:44.219Z,7.22
2022-12-23T18:14:19.132Z,7.21
2022-12-23T18:16:49.359Z,7.21
2022-12-23T18:19:22.044Z,7.17
2022-12-23T18:21:52.422Z,7.14
2022-12-23T18:24:22.252Z,7.12
2022-12-23T18:26:54.787Z,7.13
2022-12-23T18:29:24.592Z,7.13
2022-12-23T18:31:54.691Z,7.13
2022-12-23T18:34:24.497Z,7.15
2022-12-23T18:36:54.803Z,7.18
2022-12-23T18:39:24.763Z,7.19
2022-12-23T18:41:57.237Z,7.19
2022-12-23T18:44:27.152Z,7.18
2022-12-23T18:46:57.179Z,7.17
2022-12-23T18:49:27.159Z,7.14
2022-12-23T18:51:57.060Z,7.13
2022-12-23T18:54:26.926Z,7.14
2022-12-23T18:56:59.439Z,7.15
2022-12-23T18:59:30.325Z,7.12
2022-12-23T19:02:00.743Z,7.11
2022-12-23T19:04:30.931Z,7.10
2022-12-23T19:07:00.991Z,7.09
2022-12-23T19:09:31.316Z,7.07
2022-12-23T19:12:05.047Z,7.06
2022-12-23T19:14:34.981Z,7.05
2022-12-23T19:17:05.015Z,7.04
2022-12-23T19:19:35.633Z,7.03
2022-12-23T19:22:05.533Z,7.02
2022-12-23T19:24:35.591Z,7.03
2022-12-23T19:27:08.101Z,7.03
2022-12-23T19:29:37.988Z,7.00
2022-12-23T19:32:09.137Z,7.01
2022-12-23T19:34:38.949Z,7.00
2022-12-23T19:37:08.871Z,7.01
2022-12-23T19:39:40.180Z,7.01
2022-12-23T19:42:12.712Z,7.00
2022-12-23T19:44:42.515Z,7.00
2022-12-23T19:47:12.358Z,7.02
2022-12-23T19:49:42.168Z,7.03
2022-12-23T19:52:12.065Z,7.04
2022-12-23T19:54:41.940Z,7.03
2022-12-23T19:57:14.364Z,7.05
2022-12-23T19:59:44.172Z,7.04
2022-12-23T20:02:16.446Z,7.04
2022-12-23T20:04:46.939Z,7.02
2022-12-23T20:07:16.894Z,7.02
2022-12-23T20:09:46.742Z,7.03
2022-12-23T20:12:19.181Z,7.01
2022-12-23T20:14:49.269Z,6.99
2022-12-23T20:17:19.110Z,6.97
2022-12-23T20:19:48.910Z,6.96
2022-12-23T20:22:18.726Z,6.96
2022-12-23T20:24:48.727Z,6.94
2022-12-23T20:27:26.041Z,6.94
2022-12-23T20:29:57.643Z,6.96
2022-12-23T20:32:27.462Z,6.97
2022-12-23T20:34:57.583Z,7.00
2022-12-23T20:37:27.433Z,7.00
2022-12-23T20:39:57.247Z,6.99
2022-12-23T20:42:29.660Z,6.99
2022-12-23T20:44:59.495Z,6.97
2022-12-23T20:47:37.671Z,6.98
2022-12-23T20:50:09.116Z,6.96
2022-12-23T20:52:39.051Z,6.97
2022-12-23T20:55:09.988Z,6.96
2022-12-23T20:57:42.994Z,6.97
2022-12-23T21:00:14.837Z,6.97
2022-12-23T21:02:44.588Z,7.00
2022-12-23T21:05:14.358Z,7.03
2022-12-23T21:07:44.102Z,7.04
2022-12-23T21:10:15.448Z,7.04
2022-12-23T21:12:47.874Z,7.02
2022-12-23T21:15:17.817Z,7.03
2022-12-23T21:17:47.610Z,7.02
2022-12-23T21:20:17.678Z,7.01
2022-12-23T21:22:48.409Z,7.01
2022-12-23T21:25:18.224Z,6.98
2022-12-23T21:27:50.577Z,6.97
2022-12-23T21:30:20.518Z,6.95
2022-12-23T21:32:50.277Z,6.92
2022-12-23T21:35:20.166Z,6.91
2022-12-23T21:37:49.915Z,6.92
2022-12-23T21:40:19.764Z,6.92
2022-12-23T21:42:52.192Z,6.92
2022-12-23T21:45:22.685Z,6.92
2022-12-23T21:47:52.452Z,6.94
2022-12-23T21:50:22.194Z,6.96
2022-12-23T21:52:51.953Z,6.93
2022-12-23T21:55:21.826Z,6.92
2022-12-23T21:57:56.436Z,6.92
2022-12-23T22:00:26.418Z,6.91
2022-12-23T22:02:56.174Z,6.91
2022-12-23T22:05:26.816Z,6.90
2022-12-23T22:07:56.675Z,6.92
2022-12-23T22:10:26.409Z,6.92
2022-12-23T22:12:58.737Z,6.91
2022-12-23T22:15:28.783Z,6.91
2022-12-23T22:17:58.571Z,6.90
2022-12-23T22:20:28.410Z,6.92
2022-12-23T22:22:58.137Z,6.93
2022-12-23T22:25:27.872Z,6.93
2022-12-23T22:28:00.286Z,6.91
2022-12-23T22:30:30.177Z,6.92
2022-12-23T22:32:59.932Z,6.91
2022-12-23T22:35:30.381Z,6.92
2022-12-23T22:38:00.526Z,6.93
2022-12-23T22:40:30.240Z,6.95
2022-12-23T22:43:02.590Z,6.97
2022-12-23T22:45:32.381Z,6.97
2022-12-23T22:48:02.106Z,6.98
2022-12-23T22:50:31.836Z,7.00
2022-12-23T22:53:01.570Z,7.01
2022-12-23T22:55:31.342Z,7.01
2022-12-23T22:58:03.747Z,7.01
2022-12-23T23:00:33.528Z,7.03
2022-12-23T23:03:03.261Z,7.01
2022-12-23T23:05:33.145Z,7.01
2022-12-23T23:08:02.977Z,7.02
2022-12-23T23:10:32.724Z,7.02
2022-12-23T23:13:05.142Z,7.02
2022-12-23T23:15:34.874Z,7.03
2022-12-23T23:18:04.640Z,7.04
2022-12-23T23:20:34.373Z,7.04
2022-12-23T23:23:04.207Z,7.04
2022-12-23T23:25:34.069Z,7.04
2022-12-23T23:28:07.252Z,7.05
2022-12-23T23:30:37.127Z,7.04
2022-12-23T23:33:07.296Z,7.05
2022-12-23T23:35:37.893Z,7.04
2022-12-23T23:38:07.734Z,7.03
2022-12-23T23:40:37.676Z,7.03
2022-12-23T23:43:10.123Z,7.04
2022-12-23T23:45:39.875Z,7.06
2022-12-23T23:48:10.060Z,7.07
2022-12-23T23:50:39.943Z,7.05
2022-12-23T23:53:09.799Z,7.05
2022-12-23T23:55:39.710Z,7.06
2022-12-23T23:58:13.499Z,7.06
